sensor_id;sensor_type;location;lat;lon;timestamp;P1;durP1;ratioP1;P2;durP2;ratioP2
76380;SDS011;65202;52.520;10.528;2023-03-11T00:00:36;16.88;;;11.30;;
76380;SDS011;65202;52.520;10.528;2023-03-11T00:03:07;17.13;;;11.88;;
76380;SDS011;65202;52.520;10.528;2023-03-11T00:05:36;16.80;;;11.25;;
76380;SDS011;65202;52.520;10.528;2023-03-11T00:08:07;16.15;;;11.55;;
76380;SDS011;65202;52.520;10.528;2023-03-11T00:10:40;17.45;;;11.88;;
76380;SDS011;65202;52.520;10.528;2023-03-11T00:13:12;15.13;;;10.40;;
76380;SDS011;65202;52.520;10.528;2023-03-11T00:15:41;16.23;;;10.98;;
76380;SDS011;65202;52.520;10.528;2023-03-11T00:18:12;15.07;;;10.43;;
76380;SDS011;65202;52.520;10.528;2023-03-11T00:20:41;15.18;;;10.07;;
76380;SDS011;65202;52.520;10.528;2023-03-11T00:23:11;12.63;;;9.52;;
76380;SDS011;65202;52.520;10.528;2023-03-11T00:25:41;12.95;;;8.95;;
76380;SDS011;65202;52.520;10.528;2023-03-11T00:28:12;14.20;;;9.80;;
76380;SDS011;65202;52.520;10.528;2023-03-11T00:30:41;15.32;;;9.95;;
76380;SDS011;65202;52.520;10.528;2023-03-11T00:33:12;13.40;;;9.38;;
76380;SDS011;65202;52.520;10.528;2023-03-11T00:35:42;14.38;;;10.05;;
76380;SDS011;65202;52.520;10.528;2023-03-11T00:38:14;14.27;;;9.85;;
76380;SDS011;65202;52.520;10.528;2023-03-11T00:40:43;14.50;;;9.55;;
76380;SDS011;65202;52.520;10.528;2023-03-11T00:43:13;14.70;;;10.40;;
76380;SDS011;65202;52.520;10.528;2023-03-11T00:45:41;15.60;;;10.10;;
76380;SDS011;65202;52.520;10.528;2023-03-11T00:48:10;14.00;;;9.85;;
76380;SDS011;65202;52.520;10.528;2023-03-11T00:50:39;15.23;;;10.00;;
76380;SDS011;65202;52.520;10.528;2023-03-11T00:53:07;14.73;;;9.70;;
76380;SDS011;65202;52.520;10.528;2023-03-11T00:55:34;15.55;;;10.13;;
76380;SDS011;65202;52.520;10.528;2023-03-11T00:58:03;16.80;;;11.85;;
76380;SDS011;65202;52.520;10.528;2023-03-11T01:00:32;15.55;;;11.27;;
76380;SDS011;65202;52.520;10.528;2023-03-11T01:03:01;16.30;;;11.55;;
76380;SDS011;65202;52.520;10.528;2023-03-11T01:05:29;17.13;;;12.05;;
76380;SDS011;65202;52.520;10.528;2023-03-11T01:08:00;18.23;;;12.25;;
76380;SDS011;65202;52.520;10.528;2023-03-11T01:10:28;18.30;;;12.45;;
76380;SDS011;65202;52.520;10.528;2023-03-11T01:12:57;18.63;;;12.57;;
76380;SDS011;65202;52.520;10.528;2023-03-11T01:15:28;19.65;;;13.38;;
76380;SDS011;65202;52.520;10.528;2023-03-11T01:18:00;17.90;;;12.32;;
76380;SDS011;65202;52.520;10.528;2023-03-11T01:20:28;17.83;;;12.65;;
76380;SDS011;65202;52.520;10.528;2023-03-11T01:22:56;18.05;;;12.60;;
76380;SDS011;65202;52.520;10.528;2023-03-11T01:25:23;19.52;;;13.30;;
76380;SDS011;65202;52.520;10.528;2023-03-11T01:27:51;17.60;;;12.60;;
76380;SDS011;65202;52.520;10.528;2023-03-11T01:30:19;18.83;;;13.02;;
76380;SDS011;65202;52.520;10.528;2023-03-11T01:32:50;17.77;;;13.10;;
76380;SDS011;65202;52.520;10.528;2023-03-11T01:35:21;20.08;;;13.57;;
76380;SDS011;65202;52.520;10.528;2023-03-11T01:37:51;19.07;;;13.93;;
76380;SDS011;65202;52.520;10.528;2023-03-11T01:40:28;21.52;;;14.60;;
76380;SDS011;65202;52.520;10.528;2023-03-11T01:43:02;24.85;;;15.13;;
76380;SDS011;65202;52.520;10.528;2023-03-11T01:45:41;22.90;;;;;
76380;SDS011;65202;52.520;10.528;2023-03-11T01:48:30;22.17;;;15.23;;
76380;SDS011;65202;52.520;10.528;2023-03-11T01:50:57;23.55;;;15.90;;
76380;SDS011;65202;52.520;10.528;2023-03-11T01:53:26;24.23;;;16.17;;
76380;SDS011;65202;52.520;10.528;2023-03-11T01:55:53;26.02;;;16.58;;
76380;SDS011;65202;52.520;10.528;2023-03-11T01:58:25;27.75;;;17.33;;
76380;SDS011;65202;52.520;10.528;2023-03-11T02:00:59;25.10;;;16.45;;
76380;SDS011;65202;52.520;10.528;2023-03-11T02:03:30;24.35;;;16.70;;
76380;SDS011;65202;52.520;10.528;2023-03-11T02:06:06;23.75;;;15.43;;
76380;SDS011;65202;52.520;10.528;2023-03-11T02:08:40;23.00;;;15.23;;
76380;SDS011;65202;52.520;10.528;2023-03-11T02:11:10;24.75;;;16.02;;
76380;SDS011;65202;52.520;10.528;2023-03-11T02:13:44;24.63;;;16.08;;
76380;SDS011;65202;52.520;10.528;2023-03-11T02:16:12;24.00;;;15.38;;
76380;SDS011;65202;52.520;10.528;2023-03-11T02:18:40;23.95;;;15.77;;
76380;SDS011;65202;52.520;10.528;2023-03-11T02:21:18;24.35;;;15.05;;
76380;SDS011;65202;52.520;10.528;2023-03-11T02:26:53;24.33;;;15.13;;
76380;SDS011;65202;52.520;10.528;2023-03-11T02:29:24;20.48;;;14.35;;
76380;SDS011;65202;52.520;10.528;2023-03-11T02:31:54;19.58;;;13.77;;
76380;SDS011;65202;52.520;10.528;2023-03-11T02:34:28;23.88;;;15.20;;
76380;SDS011;65202;52.520;10.528;2023-03-11T02:36:59;23.25;;;15.65;;
76380;SDS011;65202;52.520;10.528;2023-03-11T02:39:31;24.10;;;15.05;;
76380;SDS011;65202;52.520;10.528;2023-03-11T02:42:03;22.05;;;14.95;;
76380;SDS011;65202;52.520;10.528;2023-03-11T02:44:38;23.50;;;15.25;;
76380;SDS011;65202;52.520;10.528;2023-03-11T02:47:09;23.77;;;16.05;;
76380;SDS011;65202;52.520;10.528;2023-03-11T02:49:37;24.30;;;16.25;;
76380;SDS011;65202;52.520;10.528;2023-03-11T02:52:05;27.10;;;16.50;;
76380;SDS011;65202;52.520;10.528;2023-03-11T02:54:32;22.45;;;15.63;;
76380;SDS011;65202;52.520;10.528;2023-03-11T02:56:59;22.40;;;15.90;;
76380;SDS011;65202;52.520;10.528;2023-03-11T02:59:27;24.10;;;15.35;;
76380;SDS011;65202;52.520;10.528;2023-03-11T03:01:54;24.27;;;16.65;;
76380;SDS011;65202;52.520;10.528;2023-03-11T03:04:22;21.83;;;15.10;;
76380;SDS011;65202;52.520;10.528;2023-03-11T03:06:49;24.42;;;16.35;;
76380;SDS011;65202;52.520;10.528;2023-03-11T03:09:16;26.50;;;16.88;;
76380;SDS011;65202;52.520;10.528;2023-03-11T03:11:44;25.88;;;16.48;;
76380;SDS011;65202;52.520;10.528;2023-03-11T03:14:11;25.05;;;16.85;;
76380;SDS011;65202;52.520;10.528;2023-03-11T03:16:38;24.48;;;16.70;;
76380;SDS011;65202;52.520;10.528;2023-03-11T03:19:06;24.83;;;16.58;;
76380;SDS011;65202;52.520;10.528;2023-03-11T03:21:33;25.50;;;16.48;;
76380;SDS011;65202;52.520;10.528;2023-03-11T03:24:00;26.30;;;17.25;;
76380;SDS011;65202;52.520;10.528;2023-03-11T03:26:27;24.88;;;16.88;;
76380;SDS011;65202;52.520;10.528;2023-03-11T03:28:55;25.35;;;16.55;;
76380;SDS011;65202;52.520;10.528;2023-03-11T03:31:22;25.73;;;17.35;;
76380;SDS011;65202;52.520;10.528;2023-03-11T03:33:50;24.10;;;16.35;;
76380;SDS011;65202;52.520;10.528;2023-03-11T03:36:17;24.98;;;15.68;;
76380;SDS011;65202;52.520;10.528;2023-03-11T03:38:44;24.73;;;16.17;;
76380;SDS011;65202;52.520;10.528;2023-03-11T03:41:14;23.95;;;15.70;;
76380;SDS011;65202;52.520;10.528;2023-03-11T03:43:42;28.55;;;16.55;;
76380;SDS011;65202;52.520;10.528;2023-03-11T03:46:09;26.55;;;17.17;;
76380;SDS011;65202;52.520;10.528;2023-03-11T03:48:36;25.63;;;16.65;;
76380;SDS011;65202;52.520;10.528;2023-03-11T03:51:05;24.40;;;16.60;;
76380;SDS011;65202;52.520;10.528;2023-03-11T03:53:36;22.47;;;16.23;;
76380;SDS011;65202;52.520;10.528;2023-03-11T03:56:04;22.77;;;15.82;;
76380;SDS011;65202;52.520;10.528;2023-03-11T03:58:35;24.30;;;16.08;;
76380;SDS011;65202;52.520;10.528;2023-03-11T04:01:03;25.10;;;16.45;;
76380;SDS011;65202;52.520;10.528;2023-03-11T04:03:31;23.95;;;16.30;;
76380;SDS011;65202;52.520;10.528;2023-03-11T04:06:04;24.00;;;15.45;;
76380;SDS011;65202;52.520;10.528;2023-03-11T04:08:52;22.10;;;14.80;;
76380;SDS011;65202;52.520;10.528;2023-03-11T04:11:20;24.50;;;15.63;;
76380;SDS011;65202;52.520;10.528;2023-03-11T04:13:48;21.60;;;14.75;;
76380;SDS011;65202;52.520;10.528;2023-03-11T04:16:17;22.10;;;14.57;;
76380;SDS011;65202;52.520;10.528;2023-03-11T04:18:49;22.30;;;14.13;;
76380;SDS011;65202;52.520;10.528;2023-03-11T04:21:16;20.85;;;13.30;;
76380;SDS011;65202;52.520;10.528;2023-03-11T04:23:43;18.23;;;12.15;;
76380;SDS011;65202;52.520;10.528;2023-03-11T04:26:11;18.65;;;11.32;;
76380;SDS011;65202;52.520;10.528;2023-03-11T04:28:39;18.35;;;10.35;;
76380;SDS011;65202;52.520;10.528;2023-03-11T04:31:06;17.27;;;10.32;;
76380;SDS011;65202;52.520;10.528;2023-03-11T04:33:34;17.73;;;10.43;;
76380;SDS011;65202;52.520;10.528;2023-03-11T04:36:05;17.38;;;10.32;;
76380;SDS011;65202;52.520;10.528;2023-03-11T04:38:34;14.93;;;9.98;;
76380;SDS011;65202;52.520;10.528;2023-03-11T04:41:03;16.80;;;10.32;;
76380;SDS011;65202;52.520;10.528;2023-03-11T04:43:32;22.73;;;12.70;;
76380;SDS011;65202;52.520;10.528;2023-03-11T04:46:00;23.20;;;12.20;;
76380;SDS011;65202;52.520;10.528;2023-03-11T04:48:27;17.85;;;10.23;;
76380;SDS011;65202;52.520;10.528;2023-03-11T04:50:54;18.77;;;10.18;;
76380;SDS011;65202;52.520;10.528;2023-03-11T04:53:22;18.23;;;10.52;;
76380;SDS011;65202;52.520;10.528;2023-03-11T04:55:50;16.95;;;9.75;;
76380;SDS011;65202;52.520;10.528;2023-03-11T04:58:18;16.63;;;9.98;;
76380;SDS011;65202;52.520;10.528;2023-03-11T05:00:46;16.38;;;9.50;;
76380;SDS011;65202;52.520;10.528;2023-03-11T05:03:13;14.77;;;9.38;;
76380;SDS011;65202;52.520;10.528;2023-03-11T05:05:40;14.43;;;9.18;;
76380;SDS011;65202;52.520;10.528;2023-03-11T05:08:08;17.45;;;9.00;;
76380;SDS011;65202;52.520;10.528;2023-03-11T05:10:35;16.23;;;8.90;;
76380;SDS011;65202;52.520;10.528;2023-03-11T05:13:03;16.58;;;8.25;;
76380;SDS011;65202;52.520;10.528;2023-03-11T05:15:30;14.85;;;8.27;;
76380;SDS011;65202;52.520;10.528;2023-03-11T05:17:58;12.98;;;8.30;;
76380;SDS011;65202;52.520;10.528;2023-03-11T05:20:25;12.40;;;7.93;;
76380;SDS011;65202;52.520;10.528;2023-03-11T05:22:53;14.00;;;8.50;;
76380;SDS011;65202;52.520;10.528;2023-03-11T05:25:20;12.70;;;8.10;;
76380;SDS011;65202;52.520;10.528;2023-03-11T05:27:47;13.45;;;8.25;;
76380;SDS011;65202;52.520;10.528;2023-03-11T05:30:14;12.80;;;8.15;;
76380;SDS011;65202;52.520;10.528;2023-03-11T05:32:42;14.55;;;8.18;;
76380;SDS011;65202;52.520;10.528;2023-03-11T05:35:10;11.07;;;7.40;;
76380;SDS011;65202;52.520;10.528;2023-03-11T05:37:37;15.23;;;7.97;;
76380;SDS011;65202;52.520;10.528;2023-03-11T05:40:05;13.23;;;7.32;;
76380;SDS011;65202;52.520;10.528;2023-03-11T05:42:35;11.95;;;7.70;;
76380;SDS011;65202;52.520;10.528;2023-03-11T05:45:02;13.52;;;7.53;;
76380;SDS011;65202;52.520;10.528;2023-03-11T05:47:30;12.38;;;7.47;;
76380;SDS011;65202;52.520;10.528;2023-03-11T05:49:57;14.38;;;7.70;;
76380;SDS011;65202;52.520;10.528;2023-03-11T05:52:25;16.05;;;6.97;;
76380;SDS011;65202;52.520;10.528;2023-03-11T05:54:52;11.23;;;6.68;;
76380;SDS011;65202;52.520;10.528;2023-03-11T05:57:19;13.93;;;7.40;;
76380;SDS011;65202;52.520;10.528;2023-03-11T05:59:46;14.02;;;7.30;;
76380;SDS011;65202;52.520;10.528;2023-03-11T06:02:13;11.73;;;6.85;;
76380;SDS011;65202;52.520;10.528;2023-03-11T06:04:41;12.25;;;6.88;;
76380;SDS011;65202;52.520;10.528;2023-03-11T06:07:08;11.55;;;6.95;;
76380;SDS011;65202;52.520;10.528;2023-03-11T06:09:37;11.13;;;7.07;;
76380;SDS011;65202;52.520;10.528;2023-03-11T06:12:05;12.10;;;6.75;;
76380;SDS011;65202;52.520;10.528;2023-03-11T06:14:33;11.45;;;7.07;;
76380;SDS011;65202;52.520;10.528;2023-03-11T06:17:00;11.43;;;6.65;;
76380;SDS011;65202;52.520;10.528;2023-03-11T06:19:27;11.13;;;6.82;;
76380;SDS011;65202;52.520;10.528;2023-03-11T06:21:54;13.55;;;7.70;;
76380;SDS011;65202;52.520;10.528;2023-03-11T06:24:21;14.25;;;7.47;;
76380;SDS011;65202;52.520;10.528;2023-03-11T06:26:52;14.13;;;7.90;;
76380;SDS011;65202;52.520;10.528;2023-03-11T06:29:19;14.60;;;7.50;;
76380;SDS011;65202;52.520;10.528;2023-03-11T06:31:50;11.82;;;8.05;;
76380;SDS011;65202;52.520;10.528;2023-03-11T06:34:17;13.25;;;7.95;;
76380;SDS011;65202;52.520;10.528;2023-03-11T06:36:44;13.75;;;8.25;;
76380;SDS011;65202;52.520;10.528;2023-03-11T06:39:12;12.20;;;8.02;;
76380;SDS011;65202;52.520;10.528;2023-03-11T06:41:40;17.42;;;8.23;;
76380;SDS011;65202;52.520;10.528;2023-03-11T06:44:09;17.02;;;8.98;;
76380;SDS011;65202;52.520;10.528;2023-03-11T06:46:37;16.95;;;8.48;;
76380;SDS011;65202;52.520;10.528;2023-03-11T06:49:04;14.50;;;8.60;;
76380;SDS011;65202;52.520;10.528;2023-03-11T06:51:32;17.25;;;8.60;;
76380;SDS011;65202;52.520;10.528;2023-03-11T06:53:59;17.92;;;8.88;;
76380;SDS011;65202;52.520;10.528;2023-03-11T06:56:27;12.93;;;8.38;;
76380;SDS011;65202;52.520;10.528;2023-03-11T06:58:54;14.48;;;8.63;;
76380;SDS011;65202;52.520;10.528;2023-03-11T07:01:23;14.18;;;7.95;;
76380;SDS011;65202;52.520;10.528;2023-03-11T07:03:51;13.38;;;8.15;;
76380;SDS011;65202;52.520;10.528;2023-03-11T07:06:23;14.80;;;8.38;;
76380;SDS011;65202;52.520;10.528;2023-03-11T07:08:52;12.65;;;7.90;;
76380;SDS011;65202;52.520;10.528;2023-03-11T07:11:21;14.05;;;8.57;;
76380;SDS011;65202;52.520;10.528;2023-03-11T07:13:52;13.02;;;8.38;;
76380;SDS011;65202;52.520;10.528;2023-03-11T07:16:24;16.80;;;8.82;;
76380;SDS011;65202;52.520;10.528;2023-03-11T07:18:55;13.35;;;8.27;;
76380;SDS011;65202;52.520;10.528;2023-03-11T07:21:27;13.40;;;8.10;;
76380;SDS011;65202;52.520;10.528;2023-03-11T07:23:58;15.02;;;8.45;;
76380;SDS011;65202;52.520;10.528;2023-03-11T07:26:28;14.27;;;8.80;;
76380;SDS011;65202;52.520;10.528;2023-03-11T07:28:57;15.23;;;8.48;;
76380;SDS011;65202;52.520;10.528;2023-03-11T07:31:27;15.32;;;8.60;;
76380;SDS011;65202;52.520;10.528;2023-03-11T07:34:00;16.08;;;8.85;;
76380;SDS011;65202;52.520;10.528;2023-03-11T07:36:31;17.17;;;9.15;;
76380;SDS011;65202;52.520;10.528;2023-03-11T07:38:59;20.65;;;8.75;;
76380;SDS011;65202;52.520;10.528;2023-03-11T07:41:31;17.73;;;9.38;;
76380;SDS011;65202;52.520;10.528;2023-03-11T07:44:01;15.48;;;9.05;;
76380;SDS011;65202;52.520;10.528;2023-03-11T07:46:30;13.65;;;9.15;;
76380;SDS011;65202;52.520;10.528;2023-03-11T07:48:59;16.63;;;9.50;;
76380;SDS011;65202;52.520;10.528;2023-03-11T07:51:29;24.55;;;11.63;;
76380;SDS011;65202;52.520;10.528;2023-03-11T07:53:59;21.60;;;12.50;;
76380;SDS011;65202;52.520;10.528;2023-03-11T07:56:29;13.40;;;9.07;;
76380;SDS011;65202;52.520;10.528;2023-03-11T07:59:00;14.57;;;9.18;;
76380;SDS011;65202;52.520;10.528;2023-03-11T08:01:30;15.32;;;9.48;;
76380;SDS011;65202;52.520;10.528;2023-03-11T08:04:03;13.00;;;9.30;;
76380;SDS011;65202;52.520;10.528;2023-03-11T08:06:34;16.80;;;9.27;;
76380;SDS011;65202;52.520;10.528;2023-03-11T08:09:05;18.40;;;9.60;;
76380;SDS011;65202;52.520;10.528;2023-03-11T08:11:35;16.52;;;9.45;;
76380;SDS011;65202;52.520;10.528;2023-03-11T08:14:03;15.18;;;9.57;;
76380;SDS011;65202;52.520;10.528;2023-03-11T08:16:31;20.00;;;9.43;;
76380;SDS011;65202;52.520;10.528;2023-03-11T08:18:58;14.43;;;8.88;;
76380;SDS011;65202;52.520;10.528;2023-03-11T08:21:26;14.93;;;9.35;;
76380;SDS011;65202;52.520;10.528;2023-03-11T08:23:59;15.10;;;8.80;;
76380;SDS011;65202;52.520;10.528;2023-03-11T08:26:28;15.65;;;9.18;;
76380;SDS011;65202;52.520;10.528;2023-03-11T08:28:56;14.65;;;8.45;;
76380;SDS011;65202;52.520;10.528;2023-03-11T08:31:26;17.58;;;9.35;;
76380;SDS011;65202;52.520;10.528;2023-03-11T08:33:58;17.38;;;9.98;;
76380;SDS011;65202;52.520;10.528;2023-03-11T08:36:29;11.60;;;8.50;;
76380;SDS011;65202;52.520;10.528;2023-03-11T08:38:57;13.07;;;8.40;;
76380;SDS011;65202;52.520;10.528;2023-03-11T08:41:25;8.88;;;6.55;;
76380;SDS011;65202;52.520;10.528;2023-03-11T08:43:54;9.40;;;6.70;;
76380;SDS011;65202;52.520;10.528;2023-03-11T08:46:24;9.35;;;5.60;;
76380;SDS011;65202;52.520;10.528;2023-03-11T08:48:55;8.77;;;5.65;;
76380;SDS011;65202;52.520;10.528;2023-03-11T08:51:27;9.73;;;6.10;;
76380;SDS011;65202;52.520;10.528;2023-03-11T08:53:58;7.10;;;5.45;;
76380;SDS011;65202;52.520;10.528;2023-03-11T08:56:26;7.72;;;5.75;;
76380;SDS011;65202;52.520;10.528;2023-03-11T08:58:54;7.60;;;5.22;;
76380;SDS011;65202;52.520;10.528;2023-03-11T09:01:21;6.65;;;4.97;;
76380;SDS011;65202;52.520;10.528;2023-03-11T09:03:49;5.82;;;4.95;;
76380;SDS011;65202;52.520;10.528;2023-03-11T09:06:17;7.25;;;5.00;;
76380;SDS011;65202;52.520;10.528;2023-03-11T09:08:45;8.43;;;5.30;;
76380;SDS011;65202;52.520;10.528;2023-03-11T09:11:14;6.75;;;5.20;;
76380;SDS011;65202;52.520;10.528;2023-03-11T09:13:42;7.35;;;5.72;;
76380;SDS011;65202;52.520;10.528;2023-03-11T09:16:13;7.13;;;5.85;;
76380;SDS011;65202;52.520;10.528;2023-03-11T09:18:47;8.13;;;5.82;;
76380;SDS011;65202;52.520;10.528;2023-03-11T09:21:15;8.27;;;6.50;;
76380;SDS011;65202;52.520;10.528;2023-03-11T09:23:42;7.93;;;6.05;;
76380;SDS011;65202;52.520;10.528;2023-03-11T09:26:11;11.27;;;6.47;;
76380;SDS011;65202;52.520;10.528;2023-03-11T09:28:40;9.00;;;7.25;;
76380;SDS011;65202;52.520;10.528;2023-03-11T09:31:08;7.70;;;6.82;;
76380;SDS011;65202;52.520;10.528;2023-03-11T09:33:37;10.30;;;7.07;;
76380;SDS011;65202;52.520;10.528;2023-03-11T09:36:07;12.13;;;7.90;;
76380;SDS011;65202;52.520;10.528;2023-03-11T09:38:42;9.95;;;6.95;;
76380;SDS011;65202;52.520;10.528;2023-03-11T09:47:15;8.88;;;7.45;;
76380;SDS011;65202;52.520;10.528;2023-03-11T09:55:42;8.95;;;7.22;;
76380;SDS011;65202;52.520;10.528;2023-03-11T09:58:17;8.55;;;6.70;;
76380;SDS011;65202;52.520;10.528;2023-03-11T10:01:01;8.30;;;6.75;;
76380;SDS011;65202;52.520;10.528;2023-03-11T10:03:36;9.80;;;7.07;;
76380;SDS011;65202;52.520;10.528;2023-03-11T10:06:22;9.23;;;7.60;;
76380;SDS011;65202;52.520;10.528;2023-03-11T10:09:05;11.48;;;7.70;;
76380;SDS011;65202;52.520;10.528;2023-03-11T10:15:05;8.68;;;6.82;;
76380;SDS011;65202;52.520;10.528;2023-03-11T10:20:58;11.50;;;6.93;;
76380;SDS011;65202;52.520;10.528;2023-03-11T10:23:50;10.02;;;6.55;;
76380;SDS011;65202;52.520;10.528;2023-03-11T10:26:58;8.68;;;6.88;;
76380;SDS011;65202;52.520;10.528;2023-03-11T10:29:43;10.30;;;7.40;;
76380;SDS011;65202;52.520;10.528;2023-03-11T10:32:23;8.15;;;6.47;;
76380;SDS011;65202;52.520;10.528;2023-03-11T10:35:20;7.50;;;5.97;;
76380;SDS011;65202;52.520;10.528;2023-03-11T10:38:13;9.35;;;5.65;;
76380;SDS011;65202;52.520;10.528;2023-03-11T10:40:46;8.40;;;5.85;;
76380;SDS011;65202;52.520;10.528;2023-03-11T10:43:18;11.30;;;5.60;;
76380;SDS011;65202;52.520;10.528;2023-03-11T10:45:50;9.52;;;7.03;;
76380;SDS011;65202;52.520;10.528;2023-03-11T10:48:20;8.88;;;6.55;;
76380;SDS011;65202;52.520;10.528;2023-03-11T10:50:56;9.10;;;5.88;;
76380;SDS011;65202;52.520;10.528;2023-03-11T10:53:29;8.57;;;5.60;;
76380;SDS011;65202;52.520;10.528;2023-03-11T10:55:57;8.95;;;5.45;;
76380;SDS011;65202;52.520;10.528;2023-03-11T10:58:27;8.38;;;4.80;;
76380;SDS011;65202;52.520;10.528;2023-03-11T11:01:15;8.43;;;5.18;;
76380;SDS011;65202;52.520;10.528;2023-03-11T11:03:49;6.82;;;4.55;;
76380;SDS011;65202;52.520;10.528;2023-03-11T11:06:35;9.00;;;4.72;;
76380;SDS011;65202;52.520;10.528;2023-03-11T11:09:05;10.55;;;5.53;;
76380;SDS011;65202;52.520;10.528;2023-03-11T11:14:45;8.52;;;5.55;;
76380;SDS011;65202;52.520;10.528;2023-03-11T11:17:21;8.25;;;4.85;;
76380;SDS011;65202;52.520;10.528;2023-03-11T11:19:54;8.13;;;5.43;;
76380;SDS011;65202;52.520;10.528;2023-03-11T11:22:25;7.28;;;5.15;;
76380;SDS011;65202;52.520;10.528;2023-03-11T11:24:54;7.93;;;5.25;;
76380;SDS011;65202;52.520;10.528;2023-03-11T11:27:23;13.07;;;7.22;;
76380;SDS011;65202;52.520;10.528;2023-03-11T11:32:43;8.98;;;4.63;;
76380;SDS011;65202;52.520;10.528;2023-03-11T11:35:12;12.77;;;4.80;;
76380;SDS011;65202;52.520;10.528;2023-03-11T11:37:46;8.50;;;5.20;;
76380;SDS011;65202;52.520;10.528;2023-03-11T11:40:24;7.90;;;4.50;;
76380;SDS011;65202;52.520;10.528;2023-03-11T11:43:03;8.07;;;4.85;;
76380;SDS011;65202;52.520;10.528;2023-03-11T11:49:09;9.90;;;4.00;;
76380;SDS011;65202;52.520;10.528;2023-03-11T11:51:53;9.50;;;5.20;;
76380;SDS011;65202;52.520;10.528;2023-03-11T11:54:30;10.55;;;4.38;;
76380;SDS011;65202;52.520;10.528;2023-03-11T11:57:11;12.82;;;5.18;;
76380;SDS011;65202;52.520;10.528;2023-03-11T11:59:42;9.00;;;4.60;;
76380;SDS011;65202;52.520;10.528;2023-03-11T12:13:24;8.57;;;4.75;;
76380;SDS011;65202;52.520;10.528;2023-03-11T12:16:24;7.15;;;4.53;;
76380;SDS011;65202;52.520;10.528;2023-03-11T12:29:51;13.65;;;4.63;;
76380;SDS011;65202;52.520;10.528;2023-03-11T12:32:39;8.75;;;3.88;;
76380;SDS011;65202;52.520;10.528;2023-03-11T12:38:03;9.82;;;4.53;;
76380;SDS011;65202;52.520;10.528;2023-03-11T12:45:56;12.80;;;5.63;;
76380;SDS011;65202;52.520;10.528;2023-03-11T12:50:55;11.43;;;3.40;;
76380;SDS011;65202;52.520;10.528;2023-03-11T12:53:41;9.07;;;3.10;;
76380;SDS011;65202;52.520;10.528;2023-03-11T12:56:30;11.68;;;3.63;;
76380;SDS011;65202;52.520;10.528;2023-03-11T13:08:27;13.38;;;3.03;;
76380;SDS011;65202;52.520;10.528;2023-03-11T13:11:34;11.02;;;3.25;;
76380;SDS011;65202;52.520;10.528;2023-03-11T13:16:55;8.05;;;2.80;;
76380;SDS011;65202;52.520;10.528;2023-03-11T13:19:52;13.25;;;3.53;;
76380;SDS011;65202;52.520;10.528;2023-03-11T13:22:39;10.43;;;3.20;;
76380;SDS011;65202;52.520;10.528;2023-03-11T13:26:26;13.30;;;3.40;;
76380;SDS011;65202;52.520;10.528;2023-03-11T13:32:00;8.50;;;2.80;;
76380;SDS011;65202;52.520;10.528;2023-03-11T13:34:49;11.25;;;3.17;;
76380;SDS011;65202;52.520;10.528;2023-03-11T13:40:18;8.85;;;2.90;;
76380;SDS011;65202;52.520;10.528;2023-03-11T13:43:00;14.10;;;3.00;;
76380;SDS011;65202;52.520;10.528;2023-03-11T13:45:32;7.30;;;2.70;;
76380;SDS011;65202;52.520;10.528;2023-03-11T13:48:03;7.07;;;2.60;;
76380;SDS011;65202;52.520;10.528;2023-03-11T13:50:44;8.93;;;2.40;;
76380;SDS011;65202;52.520;10.528;2023-03-11T13:53:29;9.23;;;2.70;;
76380;SDS011;65202;52.520;10.528;2023-03-11T13:56:05;7.50;;;2.58;;
76380;SDS011;65202;52.520;10.528;2023-03-11T13:58:43;9.25;;;2.63;;
76380;SDS011;65202;52.520;10.528;2023-03-11T14:01:13;8.82;;;2.70;;
76380;SDS011;65202;52.520;10.528;2023-03-11T14:03:43;10.43;;;2.92;;
76380;SDS011;65202;52.520;10.528;2023-03-11T14:06:14;11.75;;;2.97;;
76380;SDS011;65202;52.520;10.528;2023-03-11T14:08:52;7.20;;;2.50;;
76380;SDS011;65202;52.520;10.528;2023-03-11T14:11:26;14.40;;;2.80;;
76380;SDS011;65202;52.520;10.528;2023-03-11T14:13:57;10.10;;;2.42;;
76380;SDS011;65202;52.520;10.528;2023-03-11T14:16:27;9.25;;;2.75;;
76380;SDS011;65202;52.520;10.528;2023-03-11T14:19:02;8.30;;;2.55;;
76380;SDS011;65202;52.520;10.528;2023-03-11T14:21:46;11.45;;;2.67;;
76380;SDS011;65202;52.520;10.528;2023-03-11T14:24:27;6.40;;;2.60;;
76380;SDS011;65202;52.520;10.528;2023-03-11T14:26:56;7.05;;;2.50;;
76380;SDS011;65202;52.520;10.528;2023-03-11T14:29:31;7.18;;;2.60;;
76380;SDS011;65202;52.520;10.528;2023-03-11T14:35:00;12.90;;;3.40;;
76380;SDS011;65202;52.520;10.528;2023-03-11T14:37:32;10.30;;;2.72;;
76380;SDS011;65202;52.520;10.528;2023-03-11T14:40:02;7.22;;;2.40;;
76380;SDS011;65202;52.520;10.528;2023-03-11T14:42:46;9.70;;;2.42;;
76380;SDS011;65202;52.520;10.528;2023-03-11T14:45:15;6.10;;;2.20;;
76380;SDS011;65202;52.520;10.528;2023-03-11T14:50:36;8.27;;;2.50;;
76380;SDS011;65202;52.520;10.528;2023-03-11T14:53:07;6.28;;;2.05;;
76380;SDS011;65202;52.520;10.528;2023-03-11T14:55:55;9.68;;;2.72;;
76380;SDS011;65202;52.520;10.528;2023-03-11T14:58:30;8.93;;;2.58;;
76380;SDS011;65202;52.520;10.528;2023-03-11T15:06:31;8.50;;;2.45;;
76380;SDS011;65202;52.520;10.528;2023-03-11T15:09:04;8.35;;;2.30;;
76380;SDS011;65202;52.520;10.528;2023-03-11T15:11:48;5.68;;;2.00;;
76380;SDS011;65202;52.520;10.528;2023-03-11T15:14:22;10.38;;;2.30;;
76380;SDS011;65202;52.520;10.528;2023-03-11T15:17:17;9.07;;;2.08;;
76380;SDS011;65202;52.520;10.528;2023-03-11T15:20:03;8.50;;;2.00;;
76380;SDS011;65202;52.520;10.528;2023-03-11T15:22:39;7.95;;;2.30;;
76380;SDS011;65202;52.520;10.528;2023-03-11T15:25:16;9.05;;;2.00;;
76380;SDS011;65202;52.520;10.528;2023-03-11T15:27:45;6.53;;;1.85;;
76380;SDS011;65202;52.520;10.528;2023-03-11T15:32:56;8.23;;;1.95;;
76380;SDS011;65202;52.520;10.528;2023-03-11T15:35:25;9.48;;;2.35;;
76380;SDS011;65202;52.520;10.528;2023-03-11T15:38:16;8.70;;;2.47;;
76380;SDS011;65202;52.520;10.528;2023-03-11T15:40:59;7.15;;;2.67;;
76380;SDS011;65202;52.520;10.528;2023-03-11T15:43:29;6.20;;;2.17;;
76380;SDS011;65202;52.520;10.528;2023-03-11T15:46:00;8.27;;;2.05;;
76380;SDS011;65202;52.520;10.528;2023-03-11T15:48:29;5.25;;;1.77;;
76380;SDS011;65202;52.520;10.528;2023-03-11T15:50:57;8.32;;;2.22;;
76380;SDS011;65202;52.520;10.528;2023-03-11T15:53:26;10.80;;;2.03;;
76380;SDS011;65202;52.520;10.528;2023-03-11T15:55:56;10.30;;;1.88;;
76380;SDS011;65202;52.520;10.528;2023-03-11T15:58:34;7.88;;;2.00;;
76380;SDS011;65202;52.520;10.528;2023-03-11T16:01:03;11.02;;;2.20;;
76380;SDS011;65202;52.520;10.528;2023-03-11T16:03:31;11.77;;;2.05;;
76380;SDS011;65202;52.520;10.528;2023-03-11T16:05:58;9.55;;;1.80;;
76380;SDS011;65202;52.520;10.528;2023-03-11T16:08:25;9.85;;;2.90;;
76380;SDS011;65202;52.520;10.528;2023-03-11T16:10:52;10.80;;;2.25;;
76380;SDS011;65202;52.520;10.528;2023-03-11T16:13:20;15.77;;;2.70;;
76380;SDS011;65202;52.520;10.528;2023-03-11T16:15:47;9.95;;;2.10;;
76380;SDS011;65202;52.520;10.528;2023-03-11T16:18:14;12.25;;;2.33;;
76380;SDS011;65202;52.520;10.528;2023-03-11T16:23:24;9.27;;;2.13;;
76380;SDS011;65202;52.520;10.528;2023-03-11T16:25:58;5.40;;;2.15;;